createdAt,value
2022-10-08T00:03:39.069Z,3.97
2022-10-08T00:08:41.734Z,4.03
2022-10-08T00:13:44.420Z,3.72
2022-10-08T00:18:47.013Z,3.60
2022-10-08T00:23:48.833Z,4.07
2022-10-08T00:28:50.551Z,4.03
2022-10-08T00:33:54.239Z,3.55
2022-10-08T00:38:56.776Z,4.10
2022-10-08T00:43:59.793Z,4.18
2022-10-08T00:49:04.817Z,4.13
2022-10-08T00:54:06.178Z,4.00
2022-10-08T00:59:07.981Z,3.85
2022-10-08T01:04:09.778Z,4.40
2022-10-08T01:09:19.097Z,4.03
2022-10-08T01:14:23.748Z,4.13
2022-10-08T01:19:46.617Z,3.78
2022-10-08T01:25:09.821Z,4.15
2022-10-08T01:30:16.317Z,4.05
2022-10-08T01:35:24.833Z,4.15
2022-10-08T01:40:32.152Z,4.00
2022-10-08T01:45:35.927Z,3.75
2022-10-08T01:51:07.637Z,4.45
2022-10-08T01:56:10.325Z,4.22
2022-10-08T02:01:27.563Z,4.20
2022-10-08T02:06:29.016Z,3.97
2022-10-08T02:11:30.384Z,4.65
2022-10-08T02:16:31.776Z,4.45
2022-10-08T02:21:34.171Z,4.60
2022-10-08T02:26:40.345Z,4.68
2022-10-08T02:31:56.202Z,4.18
2022-10-08T02:37:03.316Z,4.07
2022-10-08T02:42:07.272Z,4.18
2022-10-08T02:47:11.021Z,4.57
2022-10-08T02:52:12.376Z,4.10
2022-10-08T02:57:29.065Z,4.32
2022-10-08T03:02:39.625Z,4.07
2022-10-08T03:07:41.034Z,4.38
2022-10-08T03:12:42.396Z,4.10
2022-10-08T03:17:44.806Z,4.55
2022-10-08T03:22:46.457Z,3.95
2022-10-08T03:27:50.145Z,4.43
2022-10-08T03:32:51.513Z,3.97
2022-10-08T03:37:53.581Z,3.95
2022-10-08T03:42:54.952Z,4.30
2022-10-08T03:47:56.357Z,4.28
2022-10-08T03:52:57.741Z,4.38
2022-10-08T03:57:59.108Z,4.07
2022-10-08T04:03:00.488Z,4.20
2022-10-08T04:08:01.873Z,4.53
2022-10-08T04:13:03.253Z,4.30
2022-10-08T04:18:04.617Z,4.35
2022-10-08T04:23:06.870Z,3.80
2022-10-08T04:28:08.299Z,4.45
2022-10-08T04:33:09.685Z,4.40
2022-10-08T04:38:11.056Z,4.60
2022-10-08T04:43:12.429Z,4.85
2022-10-08T04:48:13.818Z,4.40
2022-10-08T04:53:15.172Z,5.03
2022-10-08T04:58:16.533Z,4.25
2022-10-08T05:03:17.901Z,4.47
2022-10-08T05:08:19.263Z,4.65
2022-10-08T05:13:20.632Z,4.38
2022-10-08T05:18:22.589Z,4.07
2022-10-08T05:23:23.990Z,4.25
2022-10-08T05:28:25.390Z,4.47
2022-10-08T05:33:26.801Z,3.90
2022-10-08T05:38:34.029Z,3.97
2022-10-08T05:43:36.292Z,4.20
2022-10-08T05:48:37.660Z,3.60
2022-10-08T05:53:40.768Z,3.70
2022-10-08T05:58:42.365Z,3.50
2022-10-08T06:03:43.769Z,3.63
2022-10-08T06:08:45.173Z,3.72
2022-10-08T06:13:46.549Z,3.67
2022-10-08T06:18:47.944Z,3.53
2022-10-08T06:23:54.100Z,3.60
2022-10-08T06:28:55.554Z,3.78
2022-10-08T06:33:57.452Z,3.50
2022-10-08T06:39:00.590Z,3.90
2022-10-08T06:44:06.428Z,4.05
2022-10-08T06:49:07.797Z,4.00
2022-10-08T06:54:09.161Z,4.28
2022-10-08T06:59:10.624Z,4.35
2022-10-08T07:04:12.071Z,4.40
2022-10-08T07:09:13.632Z,4.05
2022-10-08T07:14:15.075Z,3.97
2022-10-08T07:19:16.440Z,3.72
2022-10-08T07:24:17.804Z,3.22
2022-10-08T07:29:19.221Z,3.90
2022-10-08T07:34:20.644Z,3.55
2022-10-08T07:39:22.186Z,3.60
2022-10-08T07:44:23.603Z,2.88
2022-10-08T07:49:25.678Z,3.10
2022-10-08T07:54:27.508Z,3.05
2022-10-08T07:59:28.924Z,2.65
2022-10-08T08:04:30.289Z,3.20
2022-10-08T08:09:31.713Z,2.50
2022-10-08T08:14:33.497Z,2.70
2022-10-08T08:19:36.832Z,2.55
2022-10-08T08:24:38.202Z,2.30
2022-10-08T08:29:39.992Z,2.55
2022-10-08T08:34:41.351Z,2.72
2022-10-08T08:39:42.719Z,2.60
2022-10-08T08:44:46.367Z,2.42
2022-10-08T08:49:53.463Z,2.40
2022-10-08T08:54:55.000Z,2.17
2022-10-08T08:59:57.192Z,2.80
2022-10-08T09:05:00.838Z,2.17
2022-10-08T09:10:05.337Z,2.35
2022-10-08T09:15:18.473Z,1.95
2022-10-08T09:20:24.023Z,2.10
2022-10-08T09:25:28.138Z,1.88
2022-10-08T09:30:36.496Z,2.35
2022-10-08T09:35:50.992Z,2.03
2022-10-08T09:41:03.378Z,1.83
2022-10-08T09:46:11.796Z,2.05
2022-10-08T09:51:17.064Z,2.30
2022-10-08T09:56:28.952Z,2.30
2022-10-08T10:01:31.418Z,2.10
2022-10-08T10:06:34.814Z,2.08
2022-10-08T10:11:50.841Z,2.15
2022-10-08T10:17:03.695Z,1.65
2022-10-08T10:22:09.465Z,1.88
2022-10-08T10:27:13.719Z,1.98
2022-10-08T10:32:20.981Z,2.15
2022-10-08T10:37:29.757Z,1.70
2022-10-08T10:42:35.682Z,1.75
2022-10-08T10:52:50.790Z,1.80
2022-10-08T10:58:02.511Z,1.90
2022-10-08T11:03:37.553Z,2.10
2022-10-08T11:08:52.651Z,1.52
2022-10-08T11:14:28.978Z,1.55
2022-10-08T11:19:49.035Z,1.80
2022-10-08T11:25:14.185Z,1.55
2022-10-08T11:30:24.692Z,1.70
2022-10-08T11:35:34.700Z,1.50
2022-10-08T11:40:53.787Z,1.70
2022-10-08T11:46:28.824Z,1.65
2022-10-08T11:51:32.225Z,1.60
2022-10-08T11:56:35.075Z,1.30
2022-10-08T12:01:51.882Z,1.55
2022-10-08T12:07:16.249Z,1.48
2022-10-08T12:12:17.672Z,1.60
2022-10-08T12:17:19.037Z,1.45
2022-10-08T12:22:25.019Z,1.17
2022-10-08T12:27:28.231Z,1.42
2022-10-08T12:32:41.665Z,1.30
2022-10-08T12:38:03.548Z,1.20
2022-10-08T12:43:30.040Z,1.25
2022-10-08T12:48:34.432Z,1.15
2022-10-08T12:53:35.834Z,1.15
2022-10-08T12:58:37.538Z,1.00
2022-10-08T13:03:38.911Z,1.08
2022-10-08T13:08:40.365Z,1.20
2022-10-08T13:13:44.700Z,1.08
2022-10-08T13:18:50.566Z,1.20
2022-10-08T13:29:18.730Z,1.02
2022-10-08T13:34:20.147Z,1.33
2022-10-08T13:39:22.451Z,1.00
2022-10-08T13:44:24.157Z,1.17
2022-10-08T13:49:27.704Z,1.33
2022-10-08T13:54:31.148Z,1.10
2022-10-08T13:59:32.505Z,0.80
2022-10-08T14:04:33.866Z,0.93
2022-10-08T14:09:35.229Z,1.20
2022-10-08T14:14:36.636Z,0.77
2022-10-08T14:19:37.993Z,1.13
2022-10-08T14:24:39.377Z,1.33
2022-10-08T14:29:40.744Z,0.60
2022-10-08T14:34:42.208Z,1.00
2022-10-08T14:39:43.573Z,0.90
2022-10-08T14:44:44.990Z,0.80
2022-10-08T14:49:46.408Z,1.00
2022-10-08T14:54:47.772Z,1.00
2022-10-08T14:59:49.138Z,1.00
2022-10-08T15:04:50.501Z,1.20
2022-10-08T15:09:51.860Z,1.27
2022-10-08T15:14:53.227Z,0.90
2022-10-08T15:19:54.690Z,0.80
2022-10-08T15:24:56.064Z,1.10
2022-10-08T15:29:57.425Z,1.02
2022-10-08T15:34:58.817Z,1.00
2022-10-08T15:40:00.195Z,0.93
2022-10-08T15:45:01.560Z,0.80
2022-10-08T15:50:03.030Z,1.02
2022-10-08T15:55:04.692Z,0.80
2022-10-08T16:00:06.558Z,0.90
2022-10-08T16:05:08.217Z,1.10
2022-10-08T16:10:09.625Z,0.85
2022-10-08T16:15:10.987Z,0.80
2022-10-08T16:20:12.362Z,0.88
2022-10-08T16:25:13.800Z,0.95
2022-10-08T16:30:15.158Z,1.05
2022-10-08T16:35:16.575Z,1.02
2022-10-08T16:40:17.933Z,0.75
2022-10-08T16:45:19.289Z,1.17
2022-10-08T16:50:20.688Z,0.75
2022-10-08T16:55:22.052Z,1.00
2022-10-08T17:00:23.416Z,1.10
2022-10-08T17:05:24.781Z,1.15
2022-10-08T17:10:26.148Z,0.93
2022-10-08T17:15:27.560Z,1.30
2022-10-08T17:20:29.065Z,1.00
2022-10-08T17:25:30.438Z,1.20
2022-10-08T17:30:32.054Z,1.20
2022-10-08T17:35:33.441Z,1.02
2022-10-08T17:40:34.797Z,1.20
2022-10-08T17:45:36.149Z,1.10
2022-10-08T17:50:37.505Z,1.30
2022-10-08T17:55:38.873Z,1.10
2022-10-08T18:00:40.256Z,1.10
2022-10-08T18:05:41.613Z,1.08
2022-10-08T18:10:42.969Z,1.23
2022-10-08T18:15:44.470Z,1.30
2022-10-08T18:20:53.940Z,1.30
2022-10-08T18:25:55.337Z,1.30
2022-10-08T18:30:56.716Z,1.63
2022-10-08T18:36:15.489Z,1.20
2022-10-08T18:41:21.141Z,1.50
2022-10-08T18:46:22.701Z,1.08
2022-10-08T18:51:25.648Z,1.10
2022-10-08T18:56:31.425Z,1.20
2022-10-08T19:01:34.355Z,1.08
2022-10-08T19:06:36.957Z,1.23
2022-10-08T19:11:44.940Z,1.05
2022-10-08T19:16:46.655Z,1.30
2022-10-08T19:21:48.207Z,1.00
2022-10-08T19:26:49.750Z,1.25
2022-10-08T19:31:51.161Z,1.48
2022-10-08T19:36:52.609Z,1.30
2022-10-08T19:41:54.116Z,1.17
2022-10-08T19:46:55.592Z,1.27
2022-10-08T19:51:56.957Z,1.23
2022-10-08T19:56:58.324Z,1.10
2022-10-08T20:01:59.785Z,1.05
2022-10-08T20:07:02.080Z,1.33
2022-10-08T20:12:03.521Z,1.17
2022-10-08T20:17:04.885Z,1.30
2022-10-08T20:22:10.871Z,1.30
2022-10-08T20:27:13.136Z,1.33
2022-10-08T20:32:14.500Z,1.30
2022-10-08T20:37:15.856Z,1.23
2022-10-08T20:42:17.213Z,1.10
2022-10-08T20:47:18.581Z,1.02
2022-10-08T20:52:20.009Z,1.20
2022-10-08T20:57:21.374Z,0.95
2022-10-08T21:02:22.815Z,0.93
2022-10-08T21:07:24.213Z,1.10
2022-10-08T21:12:25.568Z,0.98
2022-10-08T21:17:26.940Z,0.93
2022-10-08T21:22:28.301Z,0.80
2022-10-08T21:27:29.672Z,1.00
2022-10-08T21:32:31.033Z,0.90
2022-10-08T21:37:32.394Z,1.00
2022-10-08T21:42:33.749Z,1.10
2022-10-08T21:47:35.106Z,1.30
2022-10-08T21:52:36.465Z,0.80
2022-10-08T21:57:37.872Z,1.00
2022-10-08T22:02:40.405Z,1.10
2022-10-08T22:07:41.763Z,1.30
2022-10-08T22:12:43.163Z,1.10
2022-10-08T22:17:44.536Z,1.10
2022-10-08T22:22:46.190Z,0.93
2022-10-08T22:27:47.819Z,1.10
2022-10-08T22:32:49.494Z,1.13
2022-10-08T22:37:51.097Z,1.13
2022-10-08T22:42:55.542Z,1.10
2022-10-08T22:47:56.905Z,1.25
2022-10-08T22:52:58.260Z,1.00
2022-10-08T22:57:59.630Z,0.88
2022-10-08T23:03:01.077Z,1.10
2022-10-08T23:08:02.491Z,1.02
2022-10-08T23:13:03.867Z,0.70
2022-10-08T23:18:05.242Z,0.90
2022-10-08T23:23:06.618Z,0.98
2022-10-08T23:28:08.042Z,0.93
2022-10-08T23:33:09.483Z,0.90
2022-10-08T23:38:10.944Z,1.20
2022-10-08T23:43:12.124Z,0.90
2022-10-08T23:48:13.497Z,1.00
2022-10-08T23:53:14.879Z,0.95
2022-10-08T23:58:18.796Z,0.80
